Time;durP1;ratioP1;P1;durP2;ratioP2;P2;SDS_P1;SDS_P2;PMS_P1;PMS_P2;Temp;Humidity;BMP_temperature;BMP_pressure;BME280_temperature;BME280_humidity;BME280_pressure;Samples;Min_cycle;Max_cycle;Signal;HPM_P1;HPM_P2
2021/07/13 00:02:06;;;;;;;0.00;0.00;;;;;;;;;;5042821;28;20212;-65
2021/07/13 00:04:34;;;;;;;0.10;0.10;;;;;;;;;;5042858;28;20254;-65
2021/07/13 00:07:00;;;;;;;0.00;0.00;;;;;;;;;;5042698;28;20258;-65
2021/07/13 00:09:26;;;;;;;0.00;0.00;;;;;;;;;;5030173;28;20251;-65
2021/07/13 00:11:52;;;;;;;0.00;0.00;;;;;;;;;;5022346;28;20202;-64
2021/07/13 00:14:19;;;;;;;0.00;0.00;;;;;;;;;;5033768;28;20262;-65
2021/07/13 00:16:45;;;;;;;0.10;0.10;;;;;;;;;;5042424;28;20246;-64
2021/07/13 00:19:12;;;;;;;0.00;0.00;;;;;;;;;;5033539;28;20206;-66
2021/07/13 00:21:39;;;;;;;0.00;0.00;;;;;;;;;;5023270;28;20400;-65
2021/07/13 00:24:05;;;;;;;0.00;0.00;;;;;;;;;;5039563;28;20518;-65
2021/07/13 00:26:32;;;;;;;0.00;0.00;;;;;;;;;;5042573;28;20225;-64
2021/07/13 00:28:58;;;;;;;0.00;0.00;;;;;;;;;;5035066;28;20209;-64
2021/07/13 00:31:24;;;;;;;0.00;0.00;;;;;;;;;;5031956;28;20205;-64
2021/07/13 00:33:50;;;;;;;0.00;0.00;;;;;;;;;;5024709;28;20395;-64
2021/07/13 00:36:18;;;;;;;0.00;0.00;;;;;;;;;;5041922;28;20205;-65
2021/07/13 00:38:44;;;;;;;0.00;0.00;;;;;;;;;;5030574;28;20209;-64
2021/07/13 00:41:10;;;;;;;0.00;0.00;;;;;;;;;;5042265;28;20528;-64
2021/07/13 00:43:36;;;;;;;0.00;0.00;;;;;;;;;;5042216;28;20238;-65
2021/07/13 00:46:03;;;;;;;0.00;0.00;;;;;;;;;;5037212;28;20220;-64
2021/07/13 00:48:29;;;;;;;0.00;0.00;;;;;;;;;;5022294;28;20492;-64
2021/07/13 00:50:58;;;;;;;0.00;0.00;;;;;;;;;;5036259;28;20213;-64
2021/07/13 00:53:26;;;;;;;0.00;0.00;;;;;;;;;;5021979;28;20226;-65
2021/07/13 00:55:54;;;;;;;0.00;0.00;;;;;;;;;;5036683;28;20224;-64
2021/07/13 00:58:20;;;;;;;0.00;0.00;;;;;;;;;;5034336;28;20309;-65
2021/07/13 01:00:47;;;;;;;0.00;0.00;;;;;;;;;;5022077;28;20266;-65
2021/07/13 01:03:13;;;;;;;0.00;0.00;;;;;;;;;;5021962;28;20492;-65
2021/07/13 01:05:41;;;;;;;0.00;0.00;;;;;;;;;;5033290;28;20201;-65
2021/07/13 01:08:12;;;;;;;0.10;0.10;;;;;;;;;;5037688;28;20209;-64
2021/07/13 01:10:45;;;;;;;0.00;0.00;;;;;;;;;;5021675;28;20229;-64
2021/07/13 01:13:17;;;;;;;0.00;0.00;;;;;;;;;;5021327;28;20597;-64
2021/07/13 01:15:48;;;;;;;0.00;0.00;;;;;;;;;;5031951;28;20201;-64
2021/07/13 01:18:18;;;;;;;0.00;0.00;;;;;;;;;;5038323;28;20489;-64
2021/07/13 01:20:54;;;;;;;0.00;0.00;;;;;;;;;;5031568;28;20277;-64
2021/07/13 01:23:25;;;;;;;0.00;0.00;;;;;;;;;;5024497;28;20204;-64
2021/07/13 01:25:56;;;;;;;0.00;0.00;;;;;;;;;;5021456;28;20267;-64
2021/07/13 01:28:24;;;;;;;0.00;0.00;;;;;;;;;;5021403;28;20239;-64
2021/07/13 01:30:53;;;;;;;0.00;0.00;;;;;;;;;;5039313;28;20245;-64
2021/07/13 01:33:21;;;;;;;0.00;0.00;;;;;;;;;;5027449;28;20226;-65
2021/07/13 01:35:49;;;;;;;0.00;0.00;;;;;;;;;;5041366;28;20468;-65
2021/07/13 01:38:16;;;;;;;0.03;0.03;;;;;;;;;;5041629;28;20255;-65
2021/07/13 01:40:44;;;;;;;0.10;0.10;;;;;;;;;;5022206;28;20533;-65
2021/07/13 01:43:10;;;;;;;0.10;0.10;;;;;;;;;;5021508;28;20247;-64
2021/07/13 01:45:38;;;;;;;0.00;0.00;;;;;;;;;;5035345;28;20268;-64
2021/07/13 01:48:05;;;;;;;0.00;0.00;;;;;;;;;;5021638;28;20253;-64
2021/07/13 01:50:32;;;;;;;0.00;0.00;;;;;;;;;;5035225;28;20220;-64
2021/07/13 01:52:59;;;;;;;0.00;0.00;;;;;;;;;;5021554;28;20221;-65
2021/07/13 01:55:25;;;;;;;0.00;0.00;;;;;;;;;;5021345;28;20206;-65
2021/07/13 01:57:52;;;;;;;0.00;0.00;;;;;;;;;;5021006;28;20250;-65
2021/07/13 02:00:19;;;;;;;0.00;0.00;;;;;;;;;;5021212;28;20493;-64
2021/07/13 02:02:47;;;;;;;0.00;0.00;;;;;;;;;;5020609;28;20202;-62
2021/07/13 02:05:15;;;;;;;0.00;0.00;;;;;;;;;;5032346;28;20229;-62
2021/07/13 02:07:42;;;;;;;0.00;0.00;;;;;;;;;;5023339;28;20485;-65
2021/07/13 02:10:10;;;;;;;0.00;0.00;;;;;;;;;;5030268;28;20205;-65
2021/07/13 02:12:37;;;;;;;0.00;0.00;;;;;;;;;;5025149;28;20273;-64
2021/07/13 02:15:03;;;;;;;0.00;0.00;;;;;;;;;;5021045;28;20493;-64
2021/07/13 02:17:31;;;;;;;0.00;0.00;;;;;;;;;;5021014;28;20492;-64
2021/07/13 02:20:00;;;;;;;0.00;0.00;;;;;;;;;;5020681;28;20213;-64
2021/07/13 02:22:26;;;;;;;0.10;0.10;;;;;;;;;;5020862;28;20236;-64
2021/07/13 02:24:52;;;;;;;0.00;0.00;;;;;;;;;;5020376;28;20305;-64
2021/07/13 02:27:19;;;;;;;0.10;0.10;;;;;;;;;;5021312;28;20384;-64
2021/07/13 02:29:47;;;;;;;0.00;0.00;;;;;;;;;;5020704;28;20379;-64
2021/07/13 02:32:17;;;;;;;0.00;0.00;;;;;;;;;;5026205;28;20241;-64
2021/07/13 02:34:45;;;;;;;0.05;0.05;;;;;;;;;;5039972;28;20409;-64
2021/07/13 02:37:13;;;;;;;0.00;0.00;;;;;;;;;;5022095;28;20268;-64
2021/07/13 02:39:40;;;;;;;0.00;0.00;;;;;;;;;;5020438;28;20212;-64
2021/07/13 02:42:07;;;;;;;0.10;0.10;;;;;;;;;;5034454;28;20209;-64
2021/07/13 02:44:34;;;;;;;0.00;0.00;;;;;;;;;;5029108;28;20216;-64
2021/07/13 02:47:03;;;;;;;0.00;0.00;;;;;;;;;;5040189;28;20488;-64
2021/07/13 02:49:31;;;;;;;0.00;0.00;;;;;;;;;;5032769;28;20209;-64
2021/07/13 02:51:58;;;;;;;0.05;0.05;;;;;;;;;;5020099;28;20281;-64
2021/07/13 02:54:27;;;;;;;0.00;0.00;;;;;;;;;;5026243;28;20284;-64
2021/07/13 02:56:53;;;;;;;0.00;0.00;;;;;;;;;;5039945;28;20224;-64
2021/07/13 02:59:21;;;;;;;0.00;0.00;;;;;;;;;;5036145;28;20530;-64
2021/07/13 03:01:48;;;;;;;0.00;0.00;;;;;;;;;;5020596;28;20210;-65
2021/07/13 03:04:14;;;;;;;0.00;0.00;;;;;;;;;;5023069;28;20529;-64
2021/07/13 03:06:41;;;;;;;0.00;0.00;;;;;;;;;;5039991;28;20204;-64
2021/07/13 03:09:08;;;;;;;0.00;0.00;;;;;;;;;;5038661;28;20205;-64
2021/07/13 03:11:36;;;;;;;0.00;0.00;;;;;;;;;;5027057;28;20201;-64
2021/07/13 03:14:03;;;;;;;0.00;0.00;;;;;;;;;;5038635;28;20236;-65
2021/07/13 03:16:30;;;;;;;0.00;0.00;;;;;;;;;;5034155;28;20205;-64
2021/07/13 03:18:57;;;;;;;0.00;0.00;;;;;;;;;;5020134;28;20206;-64
2021/07/13 03:21:25;;;;;;;0.00;0.00;;;;;;;;;;5019735;28;20269;-64
2021/07/13 03:23:51;;;;;;;0.00;0.00;;;;;;;;;;5030300;28;20507;-64
2021/07/13 03:26:18;;;;;;;0.00;0.00;;;;;;;;;;5025369;28;20225;-65
2021/07/13 03:28:46;;;;;;;0.00;0.00;;;;;;;;;;5035440;28;20204;-64
2021/07/13 03:31:12;;;;;;;0.00;0.00;;;;;;;;;;5028685;28;20254;-64
2021/07/13 03:33:39;;;;;;;0.00;0.00;;;;;;;;;;5019579;28;20221;-65
2021/07/13 03:36:05;;;;;;;0.00;0.00;;;;;;;;;;5019786;28;20546;-64
2021/07/13 03:38:32;;;;;;;0.10;0.10;;;;;;;;;;5020412;28;20254;-66
2021/07/13 03:40:58;;;;;;;0.00;0.00;;;;;;;;;;5039398;28;20208;-64
2021/07/13 03:43:26;;;;;;;0.00;0.00;;;;;;;;;;5039530;28;20200;-65
2021/07/13 03:45:55;;;;;;;0.00;0.00;;;;;;;;;;5039161;28;20265;-64
2021/07/13 03:48:23;;;;;;;0.00;0.00;;;;;;;;;;5027328;28;20416;-65
2021/07/13 03:50:49;;;;;;;0.00;0.00;;;;;;;;;;5023625;28;20208;-65
2021/07/13 03:53:15;;;;;;;0.00;0.00;;;;;;;;;;5028975;28;20453;-65
2021/07/13 03:55:42;;;;;;;0.00;0.00;;;;;;;;;;5033435;28;20208;-64
2021/07/13 03:58:09;;;;;;;0.00;0.00;;;;;;;;;;5018939;28;20221;-64
2021/07/13 04:00:35;;;;;;;0.00;0.00;;;;;;;;;;5030526;28;20415;-63
2021/07/13 04:03:03;;;;;;;0.00;0.00;;;;;;;;;;5019446;28;20205;-64
2021/07/13 04:05:29;;;;;;;0.00;0.00;;;;;;;;;;5032248;28;20205;-65
2021/07/13 04:07:56;;;;;;;0.00;0.00;;;;;;;;;;5020098;28;20269;-65
2021/07/13 04:10:22;;;;;;;0.00;0.00;;;;;;;;;;5019518;28;20387;-65
2021/07/13 04:12:48;;;;;;;0.10;0.10;;;;;;;;;;5022761;28;20239;-63
2021/07/13 04:15:14;;;;;;;0.00;0.00;;;;;;;;;;5029816;28;20274;-64
2021/07/13 04:17:41;;;;;;;0.10;0.10;;;;;;;;;;5020297;28;20255;-64
2021/07/13 04:20:10;;;;;;;0.10;0.10;;;;;;;;;;5031668;28;20262;-64
2021/07/13 04:22:37;;;;;;;0.00;0.00;;;;;;;;;;5019149;28;20270;-66
2021/07/13 04:25:03;;;;;;;0.00;0.00;;;;;;;;;;5039798;28;20289;-64
2021/07/13 04:27:30;;;;;;;0.00;0.00;;;;;;;;;;5030572;28;20274;-64
2021/07/13 04:29:56;;;;;;;1.33;1.33;;;;;;;;;;5022173;28;20213;-63
2021/07/13 04:32:22;;;;;;;0.00;0.00;;;;;;;;;;5022499;28;20202;-64
2021/07/13 04:34:48;;;;;;;0.00;0.00;;;;;;;;;;5034597;28;20221;-64
2021/07/13 04:37:16;;;;;;;0.00;0.00;;;;;;;;;;5042429;28;20249;-65
2021/07/13 04:39:42;;;;;;;0.00;0.00;;;;;;;;;;5042316;28;20328;-63
2021/07/13 04:42:08;;;;;;;0.00;0.00;;;;;;;;;;5024980;27;20201;-65
2021/07/13 04:44:35;;;;;;;0.00;0.00;;;;;;;;;;5022697;28;20492;-64
2021/07/13 04:47:01;;;;;;;0.00;0.00;;;;;;;;;;5022038;28;20212;-64
2021/07/13 04:49:31;;;;;;;0.00;0.00;;;;;;;;;;5023445;28;20198;-65
2021/07/13 04:51:57;;;;;;;0.10;0.10;;;;;;;;;;5022158;28;20220;-64
2021/07/13 04:54:25;;;;;;;0.00;0.00;;;;;;;;;;5036102;28;20449;-64
2021/07/13 04:56:51;;;;;;;0.00;0.00;;;;;;;;;;5022105;28;20217;-64
2021/07/13 04:59:17;;;;;;;0.10;0.10;;;;;;;;;;5040444;28;20249;-63
2021/07/13 05:01:44;;;;;;;0.00;0.00;;;;;;;;;;5031834;28;20209;-63
2021/07/13 05:04:10;;;;;;;0.00;0.00;;;;;;;;;;5021976;28;20305;-64
2021/07/13 05:06:37;;;;;;;0.00;0.00;;;;;;;;;;5030241;28;20193;-64
2021/07/13 05:09:03;;;;;;;0.00;0.00;;;;;;;;;;5041699;28;20216;-64
2021/07/13 05:11:33;;;;;;;0.00;0.00;;;;;;;;;;5021945;28;20201;-64
2021/07/13 05:13:59;;;;;;;0.00;0.00;;;;;;;;;;5022010;28;20214;-64
2021/07/13 05:16:26;;;;;;;0.00;0.00;;;;;;;;;;5041162;28;20205;-64
2021/07/13 05:18:52;;;;;;;0.00;0.00;;;;;;;;;;5041385;28;20209;-63
2021/07/13 05:21:18;;;;;;;0.00;0.00;;;;;;;;;;5024243;27;20441;-64
2021/07/13 05:23:44;;;;;;;0.00;0.00;;;;;;;;;;5030875;28;20242;-64
2021/07/13 05:26:10;;;;;;;0.00;0.00;;;;;;;;;;5026100;28;20247;-64
2021/07/13 05:28:38;;;;;;;0.00;0.00;;;;;;;;;;5021776;28;20328;-64
2021/07/13 05:31:04;;;;;;;0.00;0.00;;;;;;;;;;5023612;28;20209;-64
2021/07/13 05:33:31;;;;;;;0.00;0.00;;;;;;;;;;5027092;28;20509;-64
2021/07/13 05:35:57;;;;;;;0.00;0.00;;;;;;;;;;5032172;27;20385;-64
2021/07/13 05:38:23;;;;;;;0.05;0.05;;;;;;;;;;5027830;28;20400;-65
2021/07/13 05:40:50;;;;;;;0.00;0.00;;;;;;;;;;5020834;28;20284;-64
2021/07/13 05:43:16;;;;;;;0.00;0.00;;;;;;;;;;5026367;28;20228;-64
2021/07/13 05:45:45;;;;;;;0.00;0.00;;;;;;;;;;5023885;28;20492;-64
2021/07/13 05:48:11;;;;;;;0.00;0.00;;;;;;;;;;5026485;28;20393;-63
2021/07/13 05:50:38;;;;;;;0.00;0.00;;;;;;;;;;5032421;28;20236;-65
2021/07/13 05:53:04;;;;;;;0.10;0.10;;;;;;;;;;5029711;28;20205;-63
2021/07/13 05:55:30;;;;;;;0.00;0.00;;;;;;;;;;5027632;28;20265;-63
2021/07/13 05:57:57;;;;;;;0.08;0.08;;;;;;;;;;5027203;28;20238;-64
2021/07/13 06:00:23;;;;;;;0.00;0.00;;;;;;;;;;5020969;28;20345;-64
2021/07/13 06:02:50;;;;;;;0.00;0.00;;;;;;;;;;5040258;28;20418;-65
2021/07/13 06:05:17;;;;;;;0.00;0.00;;;;;;;;;;5033514;28;20560;-65
2021/07/13 06:07:43;;;;;;;0.00;0.00;;;;;;;;;;5028931;28;20249;-63
2021/07/13 06:10:10;;;;;;;0.00;0.00;;;;;;;;;;5024203;28;20200;-62
2021/07/13 06:12:36;;;;;;;0.00;0.00;;;;;;;;;;5022068;28;20225;-62
2021/07/13 06:15:03;;;;;;;0.00;0.00;;;;;;;;;;5024797;28;20263;-64
2021/07/13 06:17:30;;;;;;;0.00;0.00;;;;;;;;;;5025474;28;20356;-63
2021/07/13 06:19:57;;;;;;;0.00;0.00;;;;;;;;;;5031024;28;20213;-63
2021/07/13 06:22:23;;;;;;;0.00;0.00;;;;;;;;;;5028244;28;20435;-64
2021/07/13 06:24:50;;;;;;;0.00;0.00;;;;;;;;;;5030251;28;20279;-64
2021/07/13 06:27:16;;;;;;;0.00;0.00;;;;;;;;;;5025934;27;20209;-64
2021/07/13 06:29:42;;;;;;;0.00;0.00;;;;;;;;;;5034612;28;20208;-64
2021/07/13 06:32:09;;;;;;;0.00;0.00;;;;;;;;;;5035954;28;20221;-64
2021/07/13 06:34:36;;;;;;;0.00;0.00;;;;;;;;;;5021010;28;20229;-67
2021/07/13 06:37:03;;;;;;;0.00;0.00;;;;;;;;;;5020871;28;20282;-64
2021/07/13 06:39:29;;;;;;;0.00;0.00;;;;;;;;;;5020648;28;20220;-64
2021/07/13 06:41:56;;;;;;;0.00;0.00;;;;;;;;;;5020266;28;20212;-64
2021/07/13 06:44:22;;;;;;;0.00;0.00;;;;;;;;;;5020175;28;20259;-63
2021/07/13 06:46:48;;;;;;;0.00;0.00;;;;;;;;;;5033402;28;20244;-64
2021/07/13 06:49:15;;;;;;;0.00;0.00;;;;;;;;;;5020228;28;20239;-64
2021/07/13 06:51:41;;;;;;;0.00;0.00;;;;;;;;;;5020147;28;20495;-63
2021/07/13 06:54:08;;;;;;;0.00;0.00;;;;;;;;;;5030929;28;20270;-64
2021/07/13 06:56:34;;;;;;;0.00;0.00;;;;;;;;;;5020346;28;20250;-64
2021/07/13 06:59:01;;;;;;;0.10;0.10;;;;;;;;;;5021779;28;20201;-64
2021/07/13 07:01:27;;;;;;;0.00;0.00;;;;;;;;;;5028848;28;20212;-65
2021/07/13 07:03:53;;;;;;;0.00;0.00;;;;;;;;;;5037271;28;20484;-65
2021/07/13 07:06:19;;;;;;;0.00;0.00;;;;;;;;;;5027851;28;20196;-65
2021/07/13 07:08:45;;;;;;;0.00;0.00;;;;;;;;;;5031422;28;20202;-65
2021/07/13 07:11:13;;;;;;;0.00;0.00;;;;;;;;;;5030160;28;20439;-66
2021/07/13 07:13:39;;;;;;;0.00;0.00;;;;;;;;;;5019416;28;20205;-65
2021/07/13 07:16:06;;;;;;;0.00;0.00;;;;;;;;;;5029557;28;20250;-65
2021/07/13 07:18:32;;;;;;;0.03;0.03;;;;;;;;;;5030717;28;20396;-65
2021/07/13 07:20:58;;;;;;;0.00;0.00;;;;;;;;;;5020417;28;20217;-65
2021/07/13 07:23:25;;;;;;;0.00;0.00;;;;;;;;;;5032835;28;20272;-66
2021/07/13 07:25:51;;;;;;;0.00;0.00;;;;;;;;;;5033636;28;20532;-66
2021/07/13 07:28:19;;;;;;;0.00;0.00;;;;;;;;;;5020671;28;20201;-66
2021/07/13 07:30:45;;;;;;;0.05;0.05;;;;;;;;;;5032897;28;20212;-65
2021/07/13 07:33:11;;;;;;;0.00;0.00;;;;;;;;;;5033049;28;20212;-65
2021/07/13 07:35:37;;;;;;;0.00;0.00;;;;;;;;;;5034189;28;20527;-65
2021/07/13 07:38:04;;;;;;;0.00;0.00;;;;;;;;;;5030940;28;20205;-65
2021/07/13 07:40:30;;;;;;;0.00;0.00;;;;;;;;;;5036131;28;20227;-64
2021/07/13 07:42:57;;;;;;;0.00;0.00;;;;;;;;;;5019582;28;20205;-64
2021/07/13 07:45:24;;;;;;;0.10;0.10;;;;;;;;;;5019612;28;20250;-64
2021/07/13 07:47:51;;;;;;;0.00;0.00;;;;;;;;;;5019775;28;20277;-64
2021/07/13 07:50:18;;;;;;;0.00;0.00;;;;;;;;;;5033736;28;20205;-64
2021/07/13 07:52:45;;;;;;;0.00;0.00;;;;;;;;;;5025856;28;20201;-65
2021/07/13 07:55:12;;;;;;;0.00;0.00;;;;;;;;;;5039368;28;20232;-64
2021/07/13 07:57:38;;;;;;;0.00;0.00;;;;;;;;;;5025212;28;20221;-64
2021/07/13 08:00:06;;;;;;;0.00;0.00;;;;;;;;;;5029735;28;20254;-64
2021/07/13 08:02:33;;;;;;;0.00;0.00;;;;;;;;;;5025780;28;21660;-64
2021/07/13 08:05:00;;;;;;;0.05;0.05;;;;;;;;;;5033665;28;20247;-64
2021/07/13 08:07:27;;;;;;;0.00;0.00;;;;;;;;;;5038203;28;20334;-65
2021/07/13 08:09:53;;;;;;;0.10;0.10;;;;;;;;;;5035361;28;20297;-64
2021/07/13 08:12:19;;;;;;;0.00;0.00;;;;;;;;;;5023030;28;20244;-65
2021/07/13 08:14:45;;;;;;;0.00;0.00;;;;;;;;;;5036672;28;20237;-64
2021/07/13 08:17:12;;;;;;;0.00;0.00;;;;;;;;;;5028530;28;20202;-63
2021/07/13 08:19:39;;;;;;;0.00;0.00;;;;;;;;;;5026803;28;20242;-64
2021/07/13 08:22:06;;;;;;;0.00;0.00;;;;;;;;;;5022415;28;20213;-64
2021/07/13 08:24:32;;;;;;;0.00;0.00;;;;;;;;;;5027387;28;20225;-65
2021/07/13 08:26:59;;;;;;;0.00;0.00;;;;;;;;;;5022787;28;20280;-65
2021/07/13 08:29:25;;;;;;;0.00;0.00;;;;;;;;;;5036691;28;20227;-64
2021/07/13 08:31:55;;;;;;;0.00;0.00;;;;;;;;;;5040228;28;20202;-64
2021/07/13 08:34:21;;;;;;;0.00;0.00;;;;;;;;;;5022778;28;20206;-64
2021/07/13 08:36:49;;;;;;;0.00;0.00;;;;;;;;;;5035552;28;20296;-64
2021/07/13 08:39:15;;;;;;;0.00;0.00;;;;;;;;;;5035299;28;20380;-64
2021/07/13 08:41:41;;;;;;;0.00;0.00;;;;;;;;;;5022496;28;20205;-65
2021/07/13 08:44:07;;;;;;;0.00;0.00;;;;;;;;;;5041196;28;20204;-64
2021/07/13 08:46:34;;;;;;;0.00;0.00;;;;;;;;;;5031269;28;20403;-64
2021/07/13 08:49:02;;;;;;;0.00;0.00;;;;;;;;;;5036287;28;20322;-64
2021/07/13 08:51:29;;;;;;;0.00;0.00;;;;;;;;;;5032232;28;20205;-64
2021/07/13 08:53:56;;;;;;;0.00;0.00;;;;;;;;;;5026732;28;20206;-64
2021/07/13 08:56:22;;;;;;;0.00;0.00;;;;;;;;;;5022205;28;20274;-64
2021/07/13 08:58:49;;;;;;;0.00;0.00;;;;;;;;;;5032516;28;20277;-66
2021/07/13 09:01:15;;;;;;;0.00;0.00;;;;;;;;;;5041950;28;20257;-64
2021/07/13 09:03:52;;;;;;;0.00;0.00;;;;;;;;;;5029801;28;20205;-64
2021/07/13 09:06:18;;;;;;;0.05;0.05;;;;;;;;;;5041711;28;20185;-65
2021/07/13 09:08:45;;;;;;;0.00;0.00;;;;;;;;;;5042000;28;20209;-65
2021/07/13 09:11:13;;;;;;;0.00;0.00;;;;;;;;;;5036556;28;20208;-65
2021/07/13 09:13:41;;;;;;;0.00;0.00;;;;;;;;;;5031669;28;20281;-65
2021/07/13 09:16:08;;;;;;;0.00;0.00;;;;;;;;;;5035543;28;20232;-65
2021/07/13 09:18:36;;;;;;;0.00;0.00;;;;;;;;;;5030109;28;20209;-67
2021/07/13 09:21:06;;;;;;;0.00;0.00;;;;;;;;;;5022065;28;20362;-65
2021/07/13 09:23:32;;;;;;;0.00;0.00;;;;;;;;;;5032406;28;20236;-65
2021/07/13 09:25:59;;;;;;;0.10;0.10;;;;;;;;;;5035026;28;20447;-66
2021/07/13 09:28:26;;;;;;;0.00;0.00;;;;;;;;;;5025503;28;20227;-66
2021/07/13 09:30:54;;;;;;;0.00;0.00;;;;;;;;;;5029804;28;20370;-66
2021/07/13 09:33:21;;;;;;;0.00;0.00;;;;;;;;;;5030307;28;20209;-67
2021/07/13 09:36:04;;;;;;;0.00;0.00;;;;;;;;;;5028101;28;20217;-66
2021/07/13 09:38:32;;;;;;;0.00;0.00;;;;;;;;;;5032060;28;20224;-66
2021/07/13 09:41:02;;;;;;;0.00;0.00;;;;;;;;;;5033995;28;20212;-65
2021/07/13 09:43:40;;;;;;;0.00;0.00;;;;;;;;;;5021307;28;20365;-66
2021/07/13 09:46:21;;;;;;;0.00;0.00;;;;;;;;;;5021479;28;20413;-65
2021/07/13 09:49:05;;;;;;;0.08;0.08;;;;;;;;;;5032777;28;20305;-66
2021/07/13 09:51:31;;;;;;;0.00;0.00;;;;;;;;;;5035134;28;20297;-66
2021/07/13 09:53:57;;;;;;;0.00;0.00;;;;;;;;;;5035274;28;20201;-65
2021/07/13 09:56:37;;;;;;;0.00;0.00;;;;;;;;;;5030457;28;20230;-65
2021/07/13 09:59:05;;;;;;;0.00;0.00;;;;;;;;;;5033383;28;20201;-65
2021/07/13 10:01:31;;;;;;;0.05;0.05;;;;;;;;;;5040975;28;20208;-65
2021/07/13 10:03:58;;;;;;;0.00;0.00;;;;;;;;;;5033095;28;20254;-66
2021/07/13 10:06:24;;;;;;;0.00;0.00;;;;;;;;;;5032755;28;20411;-66
2021/07/13 10:08:51;;;;;;;0.08;0.08;;;;;;;;;;5022548;28;20206;-65
2021/07/13 10:11:17;;;;;;;0.00;0.00;;;;;;;;;;5025786;28;20591;-66
2021/07/13 10:13:44;;;;;;;0.00;0.00;;;;;;;;;;5028425;28;20242;-66
2021/07/13 10:16:12;;;;;;;0.00;0.00;;;;;;;;;;5024841;28;20529;-66
2021/07/13 10:18:38;;;;;;;0.00;0.00;;;;;;;;;;5028471;28;20268;-67
2021/07/13 10:21:04;;;;;;;0.00;0.00;;;;;;;;;;5029600;28;20400;-66
2021/07/13 10:23:31;;;;;;;0.00;0.00;;;;;;;;;;5027794;28;20201;-68
2021/07/13 10:25:57;;;;;;;0.00;0.00;;;;;;;;;;5027423;28;20450;-69
2021/07/13 10:28:33;;;;;;;0.00;0.00;;;;;;;;;;5027522;28;20388;-67
2021/07/13 10:30:59;;;;;;;0.00;0.00;;;;;;;;;;5040390;28;20208;-66
2021/07/13 10:33:28;;;;;;;0.00;0.00;;;;;;;;;;5025877;28;20246;-67
2021/07/13 10:35:56;;;;;;;0.00;0.00;;;;;;;;;;5023624;28;20441;-68
2021/07/13 10:38:24;;;;;;;0.00;0.00;;;;;;;;;;5023347;28;20393;-67
2021/07/13 10:40:51;;;;;;;0.00;0.00;;;;;;;;;;5022888;28;20205;-68
2021/07/13 10:43:17;;;;;;;0.00;0.00;;;;;;;;;;5022314;28;20232;-68
2021/07/13 10:45:44;;;;;;;0.00;0.00;;;;;;;;;;5023954;28;20197;-68
2021/07/13 10:48:13;;;;;;;0.32;0.32;;;;;;;;;;5028364;28;20252;-67
2021/07/13 10:50:46;;;;;;;0.00;0.00;;;;;;;;;;5029876;28;20201;-68
2021/07/13 10:53:15;;;;;;;0.00;0.00;;;;;;;;;;5025190;28;20445;-69
2021/07/13 10:55:45;;;;;;;0.00;0.00;;;;;;;;;;5020531;28;20229;-67
2021/07/13 10:58:22;;;;;;;0.08;0.08;;;;;;;;;;5022620;28;21164;-68
2021/07/13 11:01:01;;;;;;;0.00;0.00;;;;;;;;;;5029695;28;20275;-67
2021/07/13 11:03:49;;;;;;;0.00;0.00;;;;;;;;;;5027226;28;20269;-67
2021/07/13 11:06:17;;;;;;;0.00;0.00;;;;;;;;;;5026689;27;20197;-66
2021/07/13 11:08:50;;;;;;;0.08;0.08;;;;;;;;;;5031836;28;20572;-66
2021/07/13 11:11:32;;;;;;;0.00;0.00;;;;;;;;;;5027866;28;20197;-68
2021/07/13 11:13:59;;;;;;;0.00;0.00;;;;;;;;;;5032661;28;20310;-67
2021/07/13 11:16:27;;;;;;;0.00;0.00;;;;;;;;;;5033226;28;20225;-67
2021/07/13 11:18:54;;;;;;;0.00;0.00;;;;;;;;;;5027393;28;20277;-67
2021/07/13 11:21:22;;;;;;;0.00;0.00;;;;;;;;;;5026991;28;20442;-67
2021/07/13 11:23:49;;;;;;;0.00;0.00;;;;;;;;;;5021380;28;20306;-67
2021/07/13 11:26:17;;;;;;;0.00;0.00;;;;;;;;;;5021772;28;20398;-67
2021/07/13 11:28:44;;;;;;;0.00;0.00;;;;;;;;;;5034852;28;20201;-67
2021/07/13 11:31:10;;;;;;;0.00;0.00;;;;;;;;;;5027573;28;20498;-67
2021/07/13 11:33:37;;;;;;;0.00;0.00;;;;;;;;;;5025452;28;20213;-67
2021/07/13 11:36:04;;;;;;;0.25;0.25;;;;;;;;;;5027985;28;20228;-68
2021/07/13 11:38:32;;;;;;;0.00;0.00;;;;;;;;;;5034392;28;20316;-67
2021/07/13 11:41:08;;;;;;;0.00;0.00;;;;;;;;;;5028860;28;20311;-67
2021/07/13 11:43:34;;;;;;;0.00;0.00;;;;;;;;;;5036104;28;20205;-67
2021/07/13 11:46:10;;;;;;;0.00;0.00;;;;;;;;;;5039490;28;20238;-69
2021/07/13 11:48:36;;;;;;;0.00;0.00;;;;;;;;;;5035782;28;20218;-69
2021/07/13 11:51:03;;;;;;;0.00;0.00;;;;;;;;;;5039697;28;20223;-66
2021/07/13 11:53:31;;;;;;;0.00;0.00;;;;;;;;;;5037736;28;20300;-66
2021/07/13 11:56:03;;;;;;;0.00;0.00;;;;;;;;;;5021677;28;20312;-71
2021/07/13 11:58:30;;;;;;;0.00;0.00;;;;;;;;;;5031557;28;20216;-71
2021/07/13 12:01:14;;;;;;;0.00;0.00;;;;;;;;;;5022567;28;20213;-71
2021/07/13 12:03:41;;;;;;;0.00;0.00;;;;;;;;;;5035243;28;20202;-71
2021/07/13 12:06:11;;;;;;;0.00;0.00;;;;;;;;;;5054784;28;20201;-69
2021/07/13 12:08:37;;;;;;;0.00;0.00;;;;;;;;;;5029017;28;20515;-69
2021/07/13 12:11:05;;;;;;;0.00;0.00;;;;;;;;;;5031923;28;20240;-69
2021/07/13 12:13:31;;;;;;;0.00;0.00;;;;;;;;;;5024809;28;20239;-70
2021/07/13 12:16:12;;;;;;;0.00;0.00;;;;;;;;;;5024071;28;20548;-70
2021/07/13 12:18:39;;;;;;;0.00;0.00;;;;;;;;;;5028677;28;20258;-69
2021/07/13 12:21:05;;;;;;;0.00;0.00;;;;;;;;;;5026706;28;20281;-70
2021/07/13 12:23:31;;;;;;;0.00;0.00;;;;;;;;;;5027860;28;20263;-70
2021/07/13 12:26:12;;;;;;;0.00;0.00;;;;;;;;;;5030429;28;20244;-71
2021/07/13 12:28:40;;;;;;;0.00;0.00;;;;;;;;;;5028587;28;20201;-70
2021/07/13 12:31:10;;;;;;;0.47;0.47;;;;;;;;;;5021507;28;20247;-70
2021/07/13 12:33:36;;;;;;;0.00;0.00;;;;;;;;;;5022451;28;20225;-70
2021/07/13 12:36:02;;;;;;;0.00;0.00;;;;;;;;;;5031615;28;20316;-70
2021/07/13 12:38:29;;;;;;;0.00;0.00;;;;;;;;;;5029026;28;20224;-70
2021/07/13 12:40:56;;;;;;;0.00;0.00;;;;;;;;;;5026253;28;20363;-70
2021/07/13 12:43:26;;;;;;;0.00;0.00;;;;;;;;;;5026850;28;20201;-70
2021/07/13 12:45:56;;;;;;;0.00;0.00;;;;;;;;;;5021836;28;20376;-70
2021/07/13 12:48:28;;;;;;;0.00;0.00;;;;;;;;;;5029917;28;20508;-70
2021/07/13 12:50:55;;;;;;;0.10;0.10;;;;;;;;;;5034228;28;20581;-71
2021/07/13 12:53:26;;;;;;;0.00;0.00;;;;;;;;;;5030049;28;20201;-73
2021/07/13 12:55:52;;;;;;;0.00;0.00;;;;;;;;;;5026657;28;20247;-71
2021/07/13 12:58:20;;;;;;;0.00;0.00;;;;;;;;;;5032326;28;20274;-71
2021/07/13 13:00:48;;;;;;;0.00;0.00;;;;;;;;;;5022471;28;20200;-71
2021/07/13 13:03:19;;;;;;;0.00;0.00;;;;;;;;;;5029911;28;20201;-71
2021/07/13 13:05:46;;;;;;;0.00;0.00;;;;;;;;;;5025139;28;20206;-72
2021/07/13 13:08:13;;;;;;;0.00;0.00;;;;;;;;;;5030595;28;20262;-72
2021/07/13 13:10:41;;;;;;;0.00;0.00;;;;;;;;;;5029493;28;20206;-71
2021/07/13 13:13:08;;;;;;;0.00;0.00;;;;;;;;;;5024042;28;20205;-70
2021/07/13 13:15:34;;;;;;;0.00;0.00;;;;;;;;;;5031748;28;20474;-70
2021/07/13 13:18:00;;;;;;;0.00;0.00;;;;;;;;;;5039732;28;20225;-71
2021/07/13 13:20:28;;;;;;;0.00;0.00;;;;;;;;;;5030138;28;20207;-70
2021/07/13 13:22:56;;;;;;;0.00;0.00;;;;;;;;;;5027277;28;20493;-69
2021/07/13 13:25:22;;;;;;;0.00;0.00;;;;;;;;;;5030091;28;20262;-71
2021/07/13 13:27:49;;;;;;;0.00;0.00;;;;;;;;;;5038588;28;20205;-70
2021/07/13 13:30:17;;;;;;;0.00;0.00;;;;;;;;;;5023587;28;20366;-71
2021/07/13 13:32:43;;;;;;;0.00;0.00;;;;;;;;;;5032181;28;20227;-70
2021/07/13 13:35:12;;;;;;;0.00;0.00;;;;;;;;;;5038172;27;20202;-70
2021/07/13 13:37:49;;;;;;;0.00;0.00;;;;;;;;;;5041077;28;20535;-70
2021/07/13 13:40:16;;;;;;;0.00;0.00;;;;;;;;;;5038005;27;20196;-69
2021/07/13 13:42:42;;;;;;;0.00;0.00;;;;;;;;;;5032136;28;20208;-70
2021/07/13 13:45:09;;;;;;;0.00;0.00;;;;;;;;;;5023910;28;20205;-70
2021/07/13 13:47:36;;;;;;;0.00;0.00;;;;;;;;;;5026122;28;20258;-70
2021/07/13 13:50:02;;;;;;;0.00;0.00;;;;;;;;;;5028244;28;20205;-70
2021/07/13 13:52:28;;;;;;;0.00;0.00;;;;;;;;;;5027044;28;20205;-70
2021/07/13 13:54:56;;;;;;;0.00;0.00;;;;;;;;;;5041065;28;20238;-70
2021/07/13 13:57:22;;;;;;;0.00;0.00;;;;;;;;;;5024224;28;20447;-70
2021/07/13 13:59:48;;;;;;;0.00;0.00;;;;;;;;;;5022785;28;20243;-70
2021/07/13 14:02:15;;;;;;;0.00;0.00;;;;;;;;;;5023169;28;20522;-70
2021/07/13 14:04:41;;;;;;;0.00;0.00;;;;;;;;;;5037407;28;20254;-71
2021/07/13 14:07:07;;;;;;;0.00;0.00;;;;;;;;;;5026528;28;20201;-71
2021/07/13 14:09:33;;;;;;;0.00;0.00;;;;;;;;;;5033588;28;20205;-70
2021/07/13 14:12:01;;;;;;;0.00;0.00;;;;;;;;;;5020663;28;20210;-71
2021/07/13 14:14:27;;;;;;;0.00;0.00;;;;;;;;;;5034513;28;20287;-71
2021/07/13 14:16:53;;;;;;;0.08;0.08;;;;;;;;;;5024037;28;20247;-72
2021/07/13 14:19:19;;;;;;;0.00;0.00;;;;;;;;;;5030446;28;20403;-70
2021/07/13 14:21:46;;;;;;;0.00;0.00;;;;;;;;;;5034378;28;20209;-71
2021/07/13 14:24:12;;;;;;;0.00;0.00;;;;;;;;;;5024862;28;20206;-71
2021/07/13 14:26:38;;;;;;;0.00;0.00;;;;;;;;;;5036636;28;20495;-71
2021/07/13 14:29:06;;;;;;;0.00;0.00;;;;;;;;;;5023197;28;20209;-70
2021/07/13 14:31:32;;;;;;;0.00;0.00;;;;;;;;;;5022395;28;20252;-71
2021/07/13 14:33:59;;;;;;;0.00;0.00;;;;;;;;;;5038216;28;20224;-71
2021/07/13 14:36:25;;;;;;;0.00;0.00;;;;;;;;;;5029112;28;20273;-70
2021/07/13 14:38:51;;;;;;;0.00;0.00;;;;;;;;;;5023899;28;20208;-70
2021/07/13 14:41:19;;;;;;;0.00;0.00;;;;;;;;;;5029020;28;20240;-72
2021/07/13 14:43:45;;;;;;;0.00;0.00;;;;;;;;;;5022193;28;20201;-70
2021/07/13 14:46:14;;;;;;;0.00;0.00;;;;;;;;;;5023435;28;20259;-69